createdAt,value
2022-07-31T00:00:27.810Z,1012.97
2022-07-31T00:01:26.687Z,1012.97
2022-07-31T00:02:26.676Z,1013.02
2022-07-31T00:03:26.776Z,1013.01
2022-07-31T00:04:26.659Z,1013.04
2022-07-31T00:05:26.651Z,1013.03
2022-07-31T00:06:26.634Z,1013.02
2022-07-31T00:07:26.620Z,1013.06
2022-07-31T00:08:26.610Z,1013.04
2022-07-31T00:09:53.681Z,1013.03
2022-07-31T00:10:27.617Z,1013.02
2022-07-31T00:11:26.578Z,1013.01
2022-07-31T00:12:26.565Z,1013.07
2022-07-31T00:13:57.972Z,1013.06
2022-07-31T00:14:27.542Z,1013.02
2022-07-31T00:15:26.530Z,1013.05
2022-07-31T00:16:26.536Z,1013.08
2022-07-31T00:17:26.510Z,1013.05
2022-07-31T00:18:26.500Z,1013.10
2022-07-31T00:19:26.487Z,1013.06
2022-07-31T00:20:26.476Z,1013.02
2022-07-31T00:21:26.465Z,1013.00
2022-07-31T00:22:26.505Z,1013.02
2022-07-31T00:23:26.442Z,1013.02
2022-07-31T00:24:26.435Z,1012.99
2022-07-31T00:25:26.422Z,1012.98
2022-07-31T00:26:26.410Z,1013.00
2022-07-31T00:27:26.399Z,1012.98
2022-07-31T00:28:26.393Z,1013.00
2022-07-31T00:29:26.377Z,1012.93
2022-07-31T00:30:26.366Z,1012.95
2022-07-31T00:31:26.355Z,1012.97
2022-07-31T00:32:26.343Z,1012.94
2022-07-31T00:33:26.332Z,1012.91
2022-07-31T00:34:26.341Z,1012.92
2022-07-31T00:35:26.309Z,1012.91
2022-07-31T00:36:28.493Z,1012.91
2022-07-31T00:37:26.287Z,1012.92
2022-07-31T00:38:27.130Z,1012.94
2022-07-31T00:39:26.265Z,1012.93
2022-07-31T00:40:26.259Z,1012.91
2022-07-31T00:41:26.244Z,1012.90
2022-07-31T00:42:26.234Z,1012.89
2022-07-31T00:43:30.691Z,1012.87
2022-07-31T00:44:26.237Z,1012.86
2022-07-31T00:45:29.111Z,1012.86
2022-07-31T00:46:27.218Z,1012.87
2022-07-31T00:47:26.177Z,1012.85
2022-07-31T00:48:26.169Z,1012.83
2022-07-31T00:49:26.230Z,1012.84
2022-07-31T00:50:27.143Z,1012.85
2022-07-31T00:51:26.133Z,1012.80
2022-07-31T00:52:26.135Z,1012.80
2022-07-31T00:53:26.110Z,1012.77
2022-07-31T00:54:26.101Z,1012.79
2022-07-31T00:55:26.088Z,1012.76
2022-07-31T00:56:26.079Z,1012.77
2022-07-31T00:57:26.066Z,1012.75
2022-07-31T00:58:26.063Z,1012.78
2022-07-31T00:59:26.044Z,1012.74
2022-07-31T01:00:26.033Z,1012.77
2022-07-31T01:01:26.140Z,1012.75
2022-07-31T01:02:26.012Z,1012.73
2022-07-31T01:03:26.001Z,1012.73
2022-07-31T01:04:25.994Z,1012.75
2022-07-31T01:05:25.976Z,1012.71
2022-07-31T01:06:25.967Z,1012.75
2022-07-31T01:07:25.954Z,1012.76
2022-07-31T01:08:25.943Z,1012.72
2022-07-31T01:09:25.938Z,1012.70
2022-07-31T01:10:25.942Z,1012.76
2022-07-31T01:11:25.911Z,1012.71
2022-07-31T01:12:25.901Z,1012.76
2022-07-31T01:13:25.888Z,1012.74
2022-07-31T01:14:25.881Z,1012.71
2022-07-31T01:15:25.867Z,1012.71
2022-07-31T01:16:25.862Z,1012.72
2022-07-31T01:17:25.845Z,1012.67
2022-07-31T01:18:25.834Z,1012.68
2022-07-31T01:19:37.940Z,1012.68
2022-07-31T01:20:26.810Z,1012.68
2022-07-31T01:21:25.800Z,1012.65
2022-07-31T01:22:33.760Z,1012.67
2022-07-31T01:23:26.777Z,1012.64
2022-07-31T01:24:25.767Z,1012.65
2022-07-31T01:25:25.757Z,1012.65
2022-07-31T01:26:25.745Z,1012.69
2022-07-31T01:27:25.733Z,1012.66
2022-07-31T01:28:25.767Z,1012.68
2022-07-31T01:29:25.711Z,1012.67
2022-07-31T01:30:30.438Z,1012.66
2022-07-31T01:31:27.612Z,1012.67
2022-07-31T01:32:27.621Z,1012.70
2022-07-31T01:33:25.668Z,1012.68
2022-07-31T01:34:25.663Z,1012.70
2022-07-31T01:35:25.649Z,1012.73
2022-07-31T01:36:25.633Z,1012.74
2022-07-31T01:37:25.623Z,1012.75
2022-07-31T01:38:25.612Z,1012.72
2022-07-31T01:39:25.600Z,1012.75
2022-07-31T01:40:25.596Z,1012.73
2022-07-31T01:41:25.579Z,1012.77
2022-07-31T01:42:25.570Z,1012.74
2022-07-31T01:43:25.557Z,1012.77
2022-07-31T01:44:25.545Z,1012.77
2022-07-31T01:45:25.533Z,1012.77
2022-07-31T01:46:25.544Z,1012.81
2022-07-31T01:47:25.511Z,1012.80
2022-07-31T01:48:25.500Z,1012.77
2022-07-31T01:49:25.576Z,1012.79
2022-07-31T01:50:42.230Z,1012.73
2022-07-31T01:51:26.471Z,1012.75
2022-07-31T01:52:25.458Z,1012.73
2022-07-31T01:53:25.445Z,1012.71
2022-07-31T01:54:25.433Z,1012.72
2022-07-31T01:55:25.424Z,1012.73
2022-07-31T01:56:25.411Z,1012.71
2022-07-31T01:57:25.416Z,1012.69
2022-07-31T01:58:25.390Z,1012.69
2022-07-31T01:59:25.378Z,1012.76
2022-07-31T02:00:34.465Z,1012.74
2022-07-31T02:01:27.442Z,1012.78
2022-07-31T02:02:25.347Z,1012.77
2022-07-31T02:03:42.970Z,1012.76
2022-07-31T02:04:26.327Z,1012.70
2022-07-31T02:05:25.313Z,1012.70
2022-07-31T02:06:25.301Z,1012.67
2022-07-31T02:07:25.289Z,1012.70
2022-07-31T02:08:25.280Z,1012.68
2022-07-31T02:09:25.274Z,1012.69
2022-07-31T02:10:25.258Z,1012.76
2022-07-31T02:11:25.247Z,1012.70
2022-07-31T02:12:33.240Z,1012.66
2022-07-31T02:13:26.222Z,1012.69
2022-07-31T02:14:25.213Z,1012.65
2022-07-31T02:15:25.207Z,1012.68
2022-07-31T02:16:25.190Z,1012.67
2022-07-31T02:17:25.181Z,1012.67
2022-07-31T02:18:25.168Z,1012.68
2022-07-31T02:19:25.156Z,1012.64
2022-07-31T02:20:25.147Z,1012.66
2022-07-31T02:21:25.155Z,1012.65
2022-07-31T02:22:25.123Z,1012.66
2022-07-31T02:23:25.111Z,1012.69
2022-07-31T02:24:25.101Z,1012.71
2022-07-31T02:25:25.091Z,1012.75
2022-07-31T02:26:25.079Z,1012.75
2022-07-31T02:27:53.942Z,1012.72
2022-07-31T02:28:26.056Z,1012.72
2022-07-31T02:29:25.046Z,1012.73
2022-07-31T02:30:25.034Z,1012.68
2022-07-31T02:31:25.023Z,1012.72
2022-07-31T02:32:25.015Z,1012.67
2022-07-31T02:33:25.047Z,1012.67
2022-07-31T02:34:29.266Z,1012.64
2022-07-31T02:35:25.984Z,1012.67
2022-07-31T02:36:24.967Z,1012.68
2022-07-31T02:37:24.958Z,1012.66
2022-07-31T02:38:24.945Z,1012.71
2022-07-31T02:39:30.072Z,1012.66
2022-07-31T02:40:25.923Z,1012.67
2022-07-31T02:41:24.911Z,1012.73
2022-07-31T02:42:24.900Z,1012.75
2022-07-31T02:43:24.890Z,1012.73
2022-07-31T02:44:27.212Z,1012.75
2022-07-31T02:45:24.876Z,1012.73
2022-07-31T02:46:24.861Z,1012.73
2022-07-31T02:47:24.845Z,1012.70
2022-07-31T02:48:24.839Z,1012.67
2022-07-31T02:49:24.899Z,1012.68
2022-07-31T02:50:24.813Z,1012.62
2022-07-31T02:51:24.806Z,1012.64
2022-07-31T02:52:24.791Z,1012.63
2022-07-31T02:53:24.780Z,1012.63
2022-07-31T02:54:24.769Z,1012.64
2022-07-31T02:55:24.757Z,1012.64
2022-07-31T02:56:24.748Z,1012.68
2022-07-31T02:57:24.756Z,1012.69
2022-07-31T02:58:24.727Z,1012.70
2022-07-31T02:59:24.712Z,1012.67
2022-07-31T03:00:24.780Z,1012.64
2022-07-31T03:01:24.739Z,1012.67
2022-07-31T03:02:24.679Z,1012.70
2022-07-31T03:03:25.672Z,1012.67
2022-07-31T03:04:24.655Z,1012.65
2022-07-31T03:05:24.645Z,1012.64
2022-07-31T03:06:24.635Z,1012.62
2022-07-31T03:07:24.624Z,1012.60
2022-07-31T03:08:24.611Z,1012.59
2022-07-31T03:09:24.616Z,1012.64
2022-07-31T03:10:24.589Z,1012.60
2022-07-31T03:11:24.578Z,1012.61
2022-07-31T03:12:24.568Z,1012.64
2022-07-31T03:13:24.556Z,1012.61
2022-07-31T03:14:24.545Z,1012.64
2022-07-31T03:15:25.571Z,1012.58
2022-07-31T03:16:24.523Z,1012.56
2022-07-31T03:17:24.512Z,1012.48
2022-07-31T03:18:25.501Z,1012.45
2022-07-31T03:19:24.491Z,1012.48
2022-07-31T03:20:24.479Z,1012.46
2022-07-31T03:21:24.474Z,1012.49
2022-07-31T03:22:24.457Z,1012.45
2022-07-31T03:23:24.445Z,1012.43
2022-07-31T03:24:24.436Z,1012.41
2022-07-31T03:25:24.422Z,1012.43
2022-07-31T03:26:24.412Z,1012.40
2022-07-31T03:27:24.407Z,1012.38
2022-07-31T03:28:24.390Z,1012.40
2022-07-31T03:29:36.120Z,1012.38
2022-07-31T03:30:25.573Z,1012.39
2022-07-31T03:31:24.356Z,1012.38
2022-07-31T03:32:24.345Z,1012.38
2022-07-31T03:33:24.374Z,1012.36
2022-07-31T03:34:24.323Z,1012.37
2022-07-31T03:35:24.362Z,1012.36
2022-07-31T03:36:24.307Z,1012.35
2022-07-31T03:37:24.294Z,1012.31
2022-07-31T03:38:40.672Z,1012.32
2022-07-31T03:39:25.297Z,1012.33
2022-07-31T03:40:24.259Z,1012.32
2022-07-31T03:41:24.247Z,1012.29
2022-07-31T03:42:24.235Z,1012.32
2022-07-31T03:43:24.228Z,1012.31
2022-07-31T03:44:24.212Z,1012.30
2022-07-31T03:45:24.216Z,1012.28
2022-07-31T03:46:24.191Z,1012.28
2022-07-31T03:47:24.179Z,1012.31
2022-07-31T03:48:24.168Z,1012.28
2022-07-31T03:49:24.227Z,1012.26
2022-07-31T03:50:24.146Z,1012.28
2022-07-31T03:51:24.139Z,1012.28
2022-07-31T03:52:24.123Z,1012.25
2022-07-31T03:53:24.113Z,1012.23
2022-07-31T03:54:24.101Z,1012.24
2022-07-31T03:55:24.090Z,1012.23
2022-07-31T03:56:24.079Z,1012.30
2022-07-31T03:57:28.772Z,1012.27
2022-07-31T03:58:25.056Z,1012.33
2022-07-31T03:59:24.046Z,1012.31
2022-07-31T04:00:24.035Z,1012.30
2022-07-31T04:01:24.122Z,1012.31
2022-07-31T04:02:24.025Z,1012.29
2022-07-31T04:03:24.007Z,1012.33
2022-07-31T04:04:23.989Z,1012.34
2022-07-31T04:05:23.979Z,1012.32
2022-07-31T04:06:23.968Z,1012.33
2022-07-31T04:07:23.958Z,1012.35
2022-07-31T04:08:23.946Z,1012.41
2022-07-31T04:09:23.956Z,1012.41
2022-07-31T04:10:23.925Z,1012.39
2022-07-31T04:11:23.912Z,1012.40
2022-07-31T04:12:23.901Z,1012.39
2022-07-31T04:13:23.890Z,1012.45
2022-07-31T04:14:23.880Z,1012.42
2022-07-31T04:15:23.875Z,1012.44
2022-07-31T04:16:23.856Z,1012.40
2022-07-31T04:17:23.846Z,1012.44
2022-07-31T04:18:23.835Z,1012.38
2022-07-31T04:19:23.827Z,1012.43
2022-07-31T04:20:23.812Z,1012.47
2022-07-31T04:21:23.830Z,1012.48
2022-07-31T04:22:23.790Z,1012.48
2022-07-31T04:23:23.778Z,1012.52
2022-07-31T04:24:24.772Z,1012.55
2022-07-31T04:25:23.757Z,1012.55
2022-07-31T04:26:26.169Z,1012.53
2022-07-31T04:27:23.751Z,1012.50
2022-07-31T04:28:23.725Z,1012.58
2022-07-31T04:29:23.713Z,1012.56
2022-07-31T04:30:23.704Z,1012.55
2022-07-31T04:31:23.691Z,1012.57
2022-07-31T04:32:23.678Z,1012.53
2022-07-31T04:33:23.673Z,1012.60
2022-07-31T04:34:23.656Z,1012.52
2022-07-31T04:35:23.648Z,1012.56
2022-07-31T04:36:29.944Z,1012.58
2022-07-31T04:37:24.622Z,1012.56
2022-07-31T04:38:23.613Z,1012.51
2022-07-31T04:39:23.624Z,1012.51
2022-07-31T04:40:23.589Z,1012.55
2022-07-31T04:41:23.579Z,1012.53
2022-07-31T04:42:23.567Z,1012.54
2022-07-31T04:43:23.557Z,1012.57
2022-07-31T04:44:23.546Z,1012.58
2022-07-31T04:45:23.559Z,1012.57
2022-07-31T04:46:23.523Z,1012.53
2022-07-31T04:47:23.511Z,1012.55
2022-07-31T04:48:23.503Z,1012.55
2022-07-31T04:49:23.517Z,1012.55
2022-07-31T04:50:23.478Z,1012.54
2022-07-31T04:51:23.474Z,1012.56
2022-07-31T04:52:23.457Z,1012.52
2022-07-31T04:53:23.446Z,1012.56
2022-07-31T04:54:23.436Z,1012.58
2022-07-31T04:55:23.424Z,1012.60
2022-07-31T04:56:23.412Z,1012.58
2022-07-31T04:57:23.417Z,1012.60
2022-07-31T04:58:23.392Z,1012.60
2022-07-31T04:59:23.380Z,1012.60
2022-07-31T05:00:24.368Z,1012.57
2022-07-31T05:01:23.409Z,1012.61
2022-07-31T05:02:23.345Z,1012.62
2022-07-31T05:03:23.364Z,1012.63
2022-07-31T05:04:23.324Z,1012.65
2022-07-31T05:05:23.312Z,1012.63
2022-07-31T05:06:23.300Z,1012.65
2022-07-31T05:07:23.289Z,1012.59
2022-07-31T05:08:23.280Z,1012.63
2022-07-31T05:09:23.617Z,1012.56
2022-07-31T05:10:23.257Z,1012.60
2022-07-31T05:11:23.246Z,1012.60
2022-07-31T05:12:23.235Z,1012.58
2022-07-31T05:13:23.224Z,1012.59
2022-07-31T05:14:23.218Z,1012.59
2022-07-31T05:15:23.208Z,1012.61
2022-07-31T05:16:23.190Z,1012.66
2022-07-31T05:17:23.178Z,1012.65
2022-07-31T05:18:23.169Z,1012.64
2022-07-31T05:19:23.158Z,1012.63
2022-07-31T05:20:23.146Z,1012.67
2022-07-31T05:21:23.156Z,1012.66
2022-07-31T05:22:23.126Z,1012.66
2022-07-31T05:23:23.112Z,1012.67
2022-07-31T05:24:33.386Z,1012.69
2022-07-31T05:25:24.090Z,1012.70
2022-07-31T05:26:23.079Z,1012.69
2022-07-31T05:27:23.074Z,1012.69
2022-07-31T05:28:29.990Z,1012.71
2022-07-31T05:29:24.044Z,1012.70
2022-07-31T05:30:30.182Z,1012.71
2022-07-31T05:31:24.022Z,1012.70
2022-07-31T05:32:23.017Z,1012.69
2022-07-31T05:33:23.017Z,1012.67
2022-07-31T05:34:22.992Z,1012.71
2022-07-31T05:35:22.980Z,1012.67
2022-07-31T05:36:22.968Z,1012.64
2022-07-31T05:37:22.957Z,1012.64
2022-07-31T05:38:22.946Z,1012.63
2022-07-31T05:39:22.964Z,1012.62
2022-07-31T05:40:22.924Z,1012.62
2022-07-31T05:41:22.911Z,1012.59
2022-07-31T05:42:22.901Z,1012.64
2022-07-31T05:43:22.891Z,1012.60
2022-07-31T05:44:22.887Z,1012.56
2022-07-31T05:45:22.890Z,1012.56
2022-07-31T05:46:22.856Z,1012.60
2022-07-31T05:47:22.846Z,1012.56
2022-07-31T05:48:22.833Z,1012.57
2022-07-31T05:49:22.878Z,1012.58
2022-07-31T05:50:22.814Z,1012.62
2022-07-31T05:51:22.809Z,1012.63
2022-07-31T05:52:22.789Z,1012.64
2022-07-31T05:53:22.778Z,1012.65
2022-07-31T05:54:22.771Z,1012.64
2022-07-31T05:55:22.756Z,1012.62
2022-07-31T05:56:22.746Z,1012.67
2022-07-31T05:57:26.466Z,1012.70
2022-07-31T05:58:23.723Z,1012.64
2022-07-31T05:59:22.718Z,1012.73
2022-07-31T06:00:22.700Z,1012.69
2022-07-31T06:01:22.772Z,1012.74
2022-07-31T06:02:22.680Z,1012.72
2022-07-31T06:03:22.698Z,1012.71
2022-07-31T06:04:22.655Z,1012.72
2022-07-31T06:05:22.645Z,1012.75
2022-07-31T06:06:22.636Z,1012.77
2022-07-31T06:07:22.626Z,1012.81
2022-07-31T06:08:22.612Z,1012.78
2022-07-31T06:09:22.607Z,1012.78
2022-07-31T06:10:22.590Z,1012.79
2022-07-31T06:11:22.578Z,1012.80
2022-07-31T06:12:22.569Z,1012.81
2022-07-31T06:13:22.558Z,1012.85
2022-07-31T06:14:22.546Z,1012.86
2022-07-31T06:15:22.550Z,1012.87
2022-07-31T06:16:22.523Z,1012.86
2022-07-31T06:17:22.549Z,1012.84
2022-07-31T06:18:22.501Z,1012.87
2022-07-31T06:19:24.374Z,1012.84
2022-07-31T06:20:22.479Z,1012.87
2022-07-31T06:21:22.474Z,1012.87
2022-07-31T06:22:22.458Z,1012.91
2022-07-31T06:23:27.887Z,1012.90
2022-07-31T06:24:23.437Z,1012.92
2022-07-31T06:25:22.423Z,1012.88
2022-07-31T06:26:23.135Z,1012.86
2022-07-31T06:27:33.401Z,1012.89
2022-07-31T06:28:26.069Z,1012.93
2022-07-31T06:29:23.854Z,1012.90
2022-07-31T06:30:23.368Z,1012.88
2022-07-31T06:31:22.360Z,1012.89
2022-07-31T06:32:22.345Z,1012.90
2022-07-31T06:33:37.785Z,1012.89
2022-07-31T06:34:23.324Z,1012.91
2022-07-31T06:35:22.314Z,1012.94
2022-07-31T06:36:22.301Z,1012.93
2022-07-31T06:37:22.290Z,1012.92
2022-07-31T06:38:22.279Z,1012.89
2022-07-31T06:39:22.299Z,1012.88
2022-07-31T06:40:22.259Z,1012.83
2022-07-31T06:41:22.247Z,1012.85
2022-07-31T06:42:22.234Z,1012.87
2022-07-31T06:43:22.225Z,1012.83
2022-07-31T06:44:22.213Z,1012.85
2022-07-31T06:45:41.892Z,1012.86
2022-07-31T06:46:23.192Z,1012.82
2022-07-31T06:47:22.179Z,1012.81
2022-07-31T06:48:22.170Z,1012.81
2022-07-31T06:49:22.246Z,1012.80
2022-07-31T06:50:22.148Z,1012.74
2022-07-31T06:51:31.180Z,1012.75
2022-07-31T06:52:23.123Z,1012.74
2022-07-31T06:53:22.112Z,1012.73
2022-07-31T06:54:22.103Z,1012.72
2022-07-31T06:55:22.090Z,1012.73
2022-07-31T06:56:22.079Z,1012.73
2022-07-31T06:57:22.074Z,1012.75
2022-07-31T06:58:22.058Z,1012.76
2022-07-31T06:59:39.188Z,1012.72
2022-07-31T07:00:23.034Z,1012.74
2022-07-31T07:01:22.127Z,1012.76
2022-07-31T07:02:22.013Z,1012.70
2022-07-31T07:03:22.008Z,1012.71
2022-07-31T07:04:21.993Z,1012.72
2022-07-31T07:05:22.982Z,1012.71
2022-07-31T07:06:21.968Z,1012.74
2022-07-31T07:07:21.961Z,1012.74
2022-07-31T07:08:21.947Z,1012.72
2022-07-31T07:09:21.941Z,1012.77
2022-07-31T07:10:21.924Z,1012.74
2022-07-31T07:11:21.917Z,1012.72
2022-07-31T07:12:21.901Z,1012.73
2022-07-31T07:13:21.890Z,1012.71
2022-07-31T07:14:21.879Z,1012.71
2022-07-31T07:15:21.902Z,1012.72
2022-07-31T07:16:21.859Z,1012.69
2022-07-31T07:17:25.921Z,1012.66
2022-07-31T07:18:22.835Z,1012.68
2022-07-31T07:19:21.824Z,1012.65
2022-07-31T07:20:21.815Z,1012.69
2022-07-31T07:21:21.819Z,1012.68
2022-07-31T07:22:31.683Z,1012.64
2022-07-31T07:23:22.779Z,1012.59
2022-07-31T07:24:21.768Z,1012.60
2022-07-31T07:25:21.761Z,1012.55
2022-07-31T07:26:21.749Z,1012.58
2022-07-31T07:27:21.741Z,1012.59
2022-07-31T07:28:31.144Z,1012.59
2022-07-31T07:29:22.714Z,1012.57
2022-07-31T07:30:21.745Z,1012.58
2022-07-31T07:31:21.691Z,1012.58
2022-07-31T07:32:21.679Z,1012.56
2022-07-31T07:33:39.759Z,1012.58
2022-07-31T07:34:22.657Z,1012.56
2022-07-31T07:35:21.649Z,1012.51
2022-07-31T07:36:23.832Z,1012.53
2022-07-31T07:37:21.626Z,1012.49
2022-07-31T07:38:21.614Z,1012.55
2022-07-31T07:39:21.622Z,1012.56
2022-07-31T07:40:21.655Z,1012.54
2022-07-31T07:41:21.579Z,1012.55
2022-07-31T07:42:21.568Z,1012.52
2022-07-31T07:43:21.558Z,1012.49
2022-07-31T07:44:21.547Z,1012.49
2022-07-31T07:45:21.541Z,1012.46
2022-07-31T07:46:21.525Z,1012.47
2022-07-31T07:47:21.514Z,1012.43
2022-07-31T07:48:21.503Z,1012.41
2022-07-31T07:49:21.586Z,1012.40
2022-07-31T07:50:21.515Z,1012.41
2022-07-31T07:51:21.514Z,1012.40
2022-07-31T07:52:21.459Z,1012.42
2022-07-31T07:53:21.449Z,1012.39
2022-07-31T07:54:21.436Z,1012.38
2022-07-31T07:55:21.425Z,1012.37
2022-07-31T07:56:21.416Z,1012.33
2022-07-31T07:57:21.418Z,1012.33
2022-07-31T07:58:21.392Z,1012.31
2022-07-31T07:59:21.380Z,1012.33
2022-07-31T08:00:21.463Z,1012.28
2022-07-31T08:01:21.420Z,1012.34
2022-07-31T08:02:21.347Z,1012.31
2022-07-31T08:03:49.801Z,1012.33
2022-07-31T08:04:22.326Z,1012.30
2022-07-31T08:05:21.314Z,1012.32
2022-07-31T08:06:21.304Z,1012.32
2022-07-31T08:07:21.293Z,1012.33
2022-07-31T08:08:21.280Z,1012.34
2022-07-31T08:09:21.274Z,1012.31
2022-07-31T08:10:21.257Z,1012.31
2022-07-31T08:11:21.249Z,1012.30
2022-07-31T08:12:21.237Z,1012.28
2022-07-31T08:13:21.227Z,1012.32
2022-07-31T08:14:21.214Z,1012.26
2022-07-31T08:15:21.209Z,1012.25
2022-07-31T08:16:21.191Z,1012.24
2022-07-31T08:17:21.180Z,1012.24
2022-07-31T08:18:21.170Z,1012.30
2022-07-31T08:19:21.159Z,1012.27
2022-07-31T08:20:21.147Z,1012.27
2022-07-31T08:21:21.143Z,1012.27
2022-07-31T08:22:21.126Z,1012.29
2022-07-31T08:23:21.115Z,1012.25
2022-07-31T08:24:21.103Z,1012.25
2022-07-31T08:25:21.092Z,1012.23
2022-07-31T08:26:21.081Z,1012.26
2022-07-31T08:27:21.518Z,1012.24
2022-07-31T08:28:24.143Z,1012.24
2022-07-31T08:29:26.500Z,1012.25
2022-07-31T08:30:22.036Z,1012.23
2022-07-31T08:31:21.077Z,1012.25
2022-07-31T08:32:21.016Z,1012.21
2022-07-31T08:33:21.036Z,1012.23
2022-07-31T08:34:31.208Z,1012.21
2022-07-31T08:35:21.981Z,1012.21
2022-07-31T08:36:20.971Z,1012.20
2022-07-31T08:37:50.861Z,1012.21
2022-07-31T08:38:21.954Z,1012.26
2022-07-31T08:39:21.136Z,1012.24
2022-07-31T08:40:20.927Z,1012.27
2022-07-31T08:41:20.916Z,1012.27
2022-07-31T08:42:20.905Z,1012.28
2022-07-31T08:44:27.088Z,1012.31
2022-07-31T08:45:22.692Z,1012.33
2022-07-31T08:46:20.862Z,1012.28
2022-07-31T08:47:20.849Z,1012.30
2022-07-31T08:48:20.838Z,1012.28
2022-07-31T08:49:20.873Z,1012.23
2022-07-31T08:50:20.822Z,1012.25
2022-07-31T08:51:20.805Z,1012.27
2022-07-31T08:52:20.794Z,1012.23
2022-07-31T08:53:20.783Z,1012.23
2022-07-31T08:54:20.774Z,1012.21
2022-07-31T08:55:24.824Z,1012.19
2022-07-31T08:56:21.769Z,1012.22
2022-07-31T08:57:20.739Z,1012.24
2022-07-31T08:58:20.728Z,1012.21
2022-07-31T08:59:20.717Z,1012.19
2022-07-31T09:00:20.707Z,1012.17
2022-07-31T09:01:20.752Z,1012.17
2022-07-31T09:02:20.711Z,1012.13
2022-07-31T09:03:20.673Z,1012.12
2022-07-31T09:04:20.661Z,1012.10
2022-07-31T09:05:20.650Z,1012.13
2022-07-31T09:06:20.639Z,1012.12
2022-07-31T09:07:20.627Z,1012.12
2022-07-31T09:08:20.635Z,1012.07
2022-07-31T09:09:20.604Z,1012.06
2022-07-31T09:10:20.597Z,1012.11
2022-07-31T09:11:20.583Z,1012.06
2022-07-31T09:12:20.575Z,1012.06
2022-07-31T09:13:21.567Z,1012.07
2022-07-31T09:14:20.551Z,1012.01
2022-07-31T09:15:20.544Z,1012.04
2022-07-31T09:16:24.189Z,1012.00
2022-07-31T09:17:21.515Z,1012.02
2022-07-31T09:18:20.506Z,1012.02
2022-07-31T09:19:51.741Z,1012.03
2022-07-31T09:20:21.482Z,1012.00
2022-07-31T09:21:20.473Z,1011.99
2022-07-31T09:22:20.461Z,1011.96
2022-07-31T09:23:20.450Z,1011.97
2022-07-31T09:24:20.441Z,1012.00
2022-07-31T09:25:20.436Z,1011.92
2022-07-31T09:26:20.418Z,1011.92
2022-07-31T09:27:20.409Z,1011.90
2022-07-31T09:28:24.992Z,1011.88
2022-07-31T09:29:20.385Z,1011.89
2022-07-31T09:30:20.375Z,1011.90
2022-07-31T09:31:20.367Z,1011.86
2022-07-31T09:32:20.353Z,1011.78
2022-07-31T09:33:20.342Z,1011.82
2022-07-31T09:34:20.330Z,1011.80
2022-07-31T09:35:20.318Z,1011.83
2022-07-31T09:36:20.307Z,1011.83
2022-07-31T09:37:20.326Z,1011.75
2022-07-31T09:38:20.284Z,1011.77
2022-07-31T09:39:24.708Z,1011.80
2022-07-31T09:40:21.472Z,1011.81
2022-07-31T09:41:56.438Z,1011.83
2022-07-31T09:42:21.248Z,1011.84
2022-07-31T09:43:20.233Z,1011.77
2022-07-31T09:44:20.326Z,1011.74
2022-07-31T09:45:21.206Z,1011.77
2022-07-31T09:46:20.213Z,1011.80
2022-07-31T09:47:20.186Z,1011.76
2022-07-31T09:48:26.847Z,1011.79
2022-07-31T09:49:21.214Z,1011.77
2022-07-31T09:50:20.154Z,1011.77
2022-07-31T09:51:20.140Z,1011.74
2022-07-31T09:52:20.129Z,1011.72
2022-07-31T09:53:20.119Z,1011.72
2022-07-31T09:54:20.113Z,1011.74
2022-07-31T09:55:20.098Z,1011.75
2022-07-31T09:56:20.085Z,1011.71
2022-07-31T09:57:20.075Z,1011.72
2022-07-31T09:58:20.064Z,1011.70
2022-07-31T09:59:20.058Z,1011.73
2022-07-31T10:00:20.063Z,1011.71
2022-07-31T10:01:20.088Z,1011.68
2022-07-31T10:02:20.022Z,1011.70
2022-07-31T10:03:20.009Z,1011.66
2022-07-31T10:04:19.997Z,1011.74
2022-07-31T10:05:19.986Z,1011.71
2022-07-31T10:06:19.980Z,1011.70
2022-07-31T10:07:32.542Z,1011.72
2022-07-31T10:08:20.951Z,1011.73
2022-07-31T10:09:19.941Z,1011.74
2022-07-31T10:10:19.931Z,1011.70
2022-07-31T10:11:19.921Z,1011.68
2022-07-31T10:12:19.938Z,1011.69
2022-07-31T10:13:19.897Z,1011.70
2022-07-31T10:14:19.887Z,1011.68
2022-07-31T10:15:19.879Z,1011.64
2022-07-31T10:16:19.864Z,1011.66
2022-07-31T10:17:19.854Z,1011.64
2022-07-31T10:18:19.853Z,1011.65
2022-07-31T10:19:20.831Z,1011.69
2022-07-31T10:20:19.827Z,1011.67
2022-07-31T10:21:19.810Z,1011.69
2022-07-31T10:22:19.800Z,1011.66
2022-07-31T10:23:19.788Z,1011.63
2022-07-31T10:24:19.797Z,1011.69
2022-07-31T10:25:19.765Z,1011.64
2022-07-31T10:26:19.753Z,1011.61
2022-07-31T10:27:19.743Z,1011.58
2022-07-31T10:28:19.734Z,1011.58
2022-07-31T10:29:19.720Z,1011.53
2022-07-31T10:30:19.716Z,1011.51
2022-07-31T10:31:19.700Z,1011.47
2022-07-31T10:32:19.695Z,1011.47
2022-07-31T10:33:42.562Z,1011.43
2022-07-31T10:34:20.665Z,1011.44
2022-07-31T10:35:19.655Z,1011.45
2022-07-31T10:36:19.651Z,1011.44
2022-07-31T10:37:19.632Z,1011.43
2022-07-31T10:38:19.624Z,1011.46
2022-07-31T10:39:19.616Z,1011.47
2022-07-31T10:40:19.599Z,1011.38
2022-07-31T10:41:19.588Z,1011.38
2022-07-31T10:42:19.583Z,1011.38
2022-07-31T10:43:19.565Z,1011.41
2022-07-31T10:44:19.555Z,1011.39
2022-07-31T10:45:19.545Z,1011.42
2022-07-31T10:46:19.533Z,1011.38
2022-07-31T10:47:19.520Z,1011.37
2022-07-31T10:48:19.526Z,1011.44
2022-07-31T10:49:19.532Z,1011.43
2022-07-31T10:50:19.490Z,1011.41
2022-07-31T10:51:19.479Z,1011.40
2022-07-31T10:52:19.466Z,1011.37
2022-07-31T10:53:19.461Z,1011.33
2022-07-31T10:54:19.473Z,1011.35
2022-07-31T10:55:19.434Z,1011.37
2022-07-31T10:56:19.425Z,1011.40
2022-07-31T10:57:19.411Z,1011.34
2022-07-31T10:58:19.400Z,1011.34
2022-07-31T10:59:19.388Z,1011.31
2022-07-31T11:00:19.399Z,1011.31
2022-07-31T11:01:19.477Z,1011.31
2022-07-31T11:02:19.356Z,1011.31
2022-07-31T11:03:19.348Z,1011.28
2022-07-31T11:04:19.334Z,1011.28
2022-07-31T11:05:19.322Z,1011.31
2022-07-31T11:06:19.334Z,1011.27
2022-07-31T11:07:19.301Z,1011.30
2022-07-31T11:08:19.290Z,1011.32
2022-07-31T11:09:19.279Z,1011.33
2022-07-31T11:10:19.268Z,1011.29
2022-07-31T11:11:22.472Z,1011.29
2022-07-31T11:12:20.250Z,1011.24
2022-07-31T11:13:19.237Z,1011.23
2022-07-31T11:14:19.222Z,1011.22
2022-07-31T11:15:19.211Z,1011.28
2022-07-31T11:16:19.202Z,1011.23
2022-07-31T11:17:19.190Z,1011.26
2022-07-31T11:18:26.383Z,1011.24
2022-07-31T11:19:20.168Z,1011.24
2022-07-31T11:20:19.157Z,1011.24
2022-07-31T11:21:37.518Z,1011.23
2022-07-31T11:22:30.862Z,1011.17
2022-07-31T11:23:20.123Z,1011.21
2022-07-31T11:24:19.132Z,1011.20
2022-07-31T11:25:19.104Z,1011.15
2022-07-31T11:26:19.092Z,1011.16
2022-07-31T11:27:20.078Z,1011.18
2022-07-31T11:28:19.190Z,1011.19
2022-07-31T11:30:00.202Z,1011.21
2022-07-31T11:30:20.067Z,1011.19
2022-07-31T11:31:19.035Z,1011.21
2022-07-31T11:32:25.978Z,1011.15
2022-07-31T11:33:20.013Z,1011.19
2022-07-31T11:34:19.003Z,1011.16
2022-07-31T11:35:18.991Z,1011.17
2022-07-31T11:36:18.988Z,1011.16
2022-07-31T11:37:18.971Z,1011.14
2022-07-31T11:38:18.959Z,1011.11
2022-07-31T11:39:18.952Z,1011.14
2022-07-31T11:40:19.935Z,1011.13
2022-07-31T11:41:22.097Z,1011.14
2022-07-31T11:42:18.921Z,1011.11
2022-07-31T11:43:26.624Z,1011.10
2022-07-31T11:44:19.893Z,1011.09
2022-07-31T11:45:18.882Z,1011.01
2022-07-31T11:46:18.870Z,1011.07
2022-07-31T11:48:09.676Z,1011.06
2022-07-31T11:48:19.855Z,1011.08
2022-07-31T11:49:18.852Z,1011.12
2022-07-31T11:50:18.825Z,1011.14
2022-07-31T11:51:18.819Z,1011.08
2022-07-31T11:52:31.193Z,1011.09
2022-07-31T11:53:19.797Z,1011.09
2022-07-31T11:54:18.810Z,1011.04
2022-07-31T11:55:18.772Z,1011.06
2022-07-31T11:56:18.759Z,1010.98
2022-07-31T11:57:18.749Z,1010.97
2022-07-31T11:58:18.743Z,1010.95
2022-07-31T11:59:44.688Z,1010.90
2022-07-31T12:00:27.053Z,1010.96
2022-07-31T12:01:19.703Z,1010.95
2022-07-31T12:02:18.764Z,1010.92
2022-07-31T12:03:18.684Z,1010.93
2022-07-31T12:04:18.671Z,1010.90
2022-07-31T12:05:18.661Z,1010.93
2022-07-31T12:06:19.685Z,1010.91